Time;durP1;ratioP1;P1;durP2;ratioP2;P2;SDS_P1;SDS_P2;PMS_P1;PMS_P2;Temp;Humidity;BMP_temperature;BMP_pressure;BME280_temperature;BME280_humidity;BME280_pressure;Samples;Min_cycle;Max_cycle;Signal;HPM_P1;HPM_P2
2022/05/24 00:00:38;;;;;;;3.90;3.70;;;18.40;1.00;;;;;;6182228;28;20326;-50
2022/05/24 00:03:41;;;;;;;3.57;3.47;;;18.30;1.00;;;;;;6186295;28;20573;-50
2022/05/24 00:06:44;;;;;;;3.50;3.40;;;18.30;1.00;;;;;;6183431;28;20776;-51
2022/05/24 00:09:47;;;;;;;4.80;3.40;;;18.30;1.00;;;;;;6182080;28;20724;-51
2022/05/24 00:12:50;;;;;;;3.60;3.40;;;18.40;1.00;;;;;;6185348;28;20738;-51
2022/05/24 00:15:54;;;;;;;3.73;3.43;;;18.30;1.00;;;;;;6182540;28;20243;-50
2022/05/24 00:18:57;;;;;;;3.77;3.47;;;18.30;1.00;;;;;;6177363;28;20236;-51
2022/05/24 00:22:00;;;;;;;3.50;3.37;;;18.30;1.00;;;;;;6181114;28;20242;-51
2022/05/24 00:25:03;;;;;;;3.87;3.67;;;18.20;1.00;;;;;;6181186;28;20248;-52
2022/05/24 00:28:07;;;;;;;3.97;3.57;;;18.20;1.00;;;;;;6181199;28;20423;-52
2022/05/24 00:31:11;;;;;;;3.60;3.40;;;18.20;1.00;;;;;;6181755;28;20870;-51
2022/05/24 00:34:14;;;;;;;4.37;4.00;;;18.10;1.00;;;;;;6181081;28;20242;-51
2022/05/24 00:37:19;;;;;;;4.10;3.80;;;18.10;1.00;;;;;;6168721;28;20375;-53
2022/05/24 00:40:33;;;;;;;3.93;3.50;;;18.00;1.00;;;;;;6170340;28;20248;-50
2022/05/24 00:43:46;;;;;;;3.97;3.73;;;18.00;1.00;;;;;;6184327;28;20792;-50
2022/05/24 00:46:56;;;;;;;5.27;4.10;;;18.00;1.00;;;;;;6183043;28;20252;-55
2022/05/24 00:50:02;;;;;;;3.70;3.50;;;18.00;1.00;;;;;;6187313;28;20293;-51
2022/05/24 00:53:09;;;;;;;3.53;3.33;;;18.00;1.00;;;;;;6188630;28;20587;-49
2022/05/24 00:56:17;;;;;;;3.97;3.70;;;18.00;1.00;;;;;;6180399;28;20871;-58
2022/05/24 00:59:27;;;;;;;4.57;3.67;;;18.00;1.00;;;;;;6184693;28;20315;-51
2022/05/24 01:02:31;;;;;;;4.50;4.20;;;18.00;1.00;;;;;;6188249;28;20239;-52
2022/05/24 01:05:34;;;;;;;3.60;3.50;;;18.00;1.00;;;;;;6184898;28;20704;-52
2022/05/24 01:08:36;;;;;;;3.53;3.23;;;18.00;1.00;;;;;;6186363;28;20310;-52
2022/05/24 01:11:45;;;;;;;4.10;3.90;;;18.00;1.00;;;;;;6184342;28;20749;-52
2022/05/24 01:14:48;;;;;;;4.30;3.80;;;17.90;1.00;;;;;;6171449;28;20236;-53
2022/05/24 01:17:55;;;;;;;4.00;3.80;;;18.00;1.00;;;;;;6188298;28;20259;-50
2022/05/24 01:21:07;;;;;;;3.97;3.77;;;17.90;1.00;;;;;;6169674;28;20467;-49
2022/05/24 01:24:17;;;;;;;4.53;3.90;;;18.00;1.00;;;;;;6175756;28;20367;-51
2022/05/24 01:27:21;;;;;;;4.23;3.60;;;18.00;1.00;;;;;;6176400;28;20331;-51
2022/05/24 01:30:24;;;;;;;3.77;3.43;;;18.00;1.00;;;;;;6184243;28;20719;-52
2022/05/24 01:36:48;;;;;;;5.07;3.80;;;18.00;1.00;;;;;;6169363;28;20237;-51
2022/05/24 01:39:53;;;;;;;4.03;3.83;;;18.00;1.00;;;;;;6179223;28;20371;-51
2022/05/24 01:42:57;;;;;;;3.70;3.60;;;18.00;1.00;;;;;;6182704;28;20268;-51
2022/05/24 01:46:03;;;;;;;3.90;3.60;;;17.90;1.00;;;;;;6184672;28;20243;-51
2022/05/24 01:49:10;;;;;;;4.93;4.30;;;18.00;1.00;;;;;;6184751;28;20761;-51
2022/05/24 01:52:17;;;;;;;3.87;3.67;;;18.00;1.00;;;;;;6183715;28;20581;-51
2022/05/24 01:55:24;;;;;;;4.50;4.10;;;18.00;1.00;;;;;;6185985;28;20232;-50
2022/05/24 01:58:31;;;;;;;4.33;4.03;;;18.00;1.00;;;;;;6184931;28;20298;-51
2022/05/24 02:01:41;;;;;;;4.10;3.70;;;18.00;1.00;;;;;;6186056;28;20357;-51
2022/05/24 02:04:45;;;;;;;4.30;4.00;;;18.00;1.00;;;;;;6181836;28;20331;-51
2022/05/24 02:07:49;;;;;;;4.40;4.10;;;18.00;1.00;;;;;;6184289;28;20385;-51
2022/05/24 02:10:56;;;;;;;4.37;4.00;;;17.90;1.00;;;;;;6179757;28;20507;-53
2022/05/24 02:14:06;;;;;;;4.57;4.27;;;17.80;1.00;;;;;;6154605;28;20228;-49
2022/05/24 02:17:12;;;;;;;4.17;3.80;;;17.80;1.00;;;;;;6186483;28;20533;-51
2022/05/24 02:20:32;;;;;;;6.70;4.10;;;17.80;1.00;;;;;;6177917;28;20405;-51
2022/05/24 02:23:41;;;;;;;4.10;3.80;;;17.70;1.00;;;;;;6185973;28;20319;-53
2022/05/24 02:26:44;;;;;;;4.60;3.80;;;17.70;1.00;;;;;;6177751;28;20255;-52
2022/05/24 02:29:48;;;;;;;4.63;4.20;;;17.60;1.00;;;;;;6183665;28;20683;-52
2022/05/24 02:32:51;;;;;;;4.70;4.30;;;17.60;1.00;;;;;;6177286;28;20960;-51
2022/05/24 02:35:54;;;;;;;5.67;4.60;;;17.50;1.00;;;;;;6182347;28;20722;-50
2022/05/24 02:38:57;;;;;;;4.20;4.00;;;17.50;1.00;;;;;;6187578;28;20423;-50
2022/05/24 02:41:59;;;;;;;5.20;4.70;;;17.40;1.00;;;;;;6183902;28;20240;-51
2022/05/24 02:45:03;;;;;;;4.67;4.37;;;17.40;1.00;;;;;;6175844;28;20309;-53
2022/05/24 02:48:07;;;;;;;4.73;4.27;;;17.30;1.00;;;;;;6178729;28;20656;-51
2022/05/24 02:51:12;;;;;;;4.60;4.30;;;17.40;1.00;;;;;;6170898;28;20351;-52
2022/05/24 02:54:14;;;;;;;4.20;3.93;;;17.30;1.00;;;;;;6185026;28;20267;-51
2022/05/24 02:57:17;;;;;;;4.70;4.50;;;17.40;1.00;;;;;;6165673;28;20277;-51
2022/05/24 03:00:24;;;;;;;4.70;4.50;;;17.30;1.00;;;;;;6177278;28;20238;-53
2022/05/24 03:03:27;;;;;;;5.47;4.30;;;17.40;1.00;;;;;;6181856;28;20683;-53
2022/05/24 03:09:33;;;;;;;4.47;4.10;;;17.30;1.00;;;;;;6183399;28;20259;-51
2022/05/24 03:09:51;;;;;;;4.53;4.23;;;17.30;1.00;;;;;;6177674;28;20314;-49
2022/05/24 03:16:17;;;;;;;4.93;4.50;;;17.30;1.00;;;;;;6183218;28;20242;-51
2022/05/24 03:19:20;;;;;;;4.27;4.10;;;17.20;1.00;;;;;;6178687;28;20238;-51
2022/05/24 03:22:23;;;;;;;4.80;4.60;;;17.20;1.00;;;;;;6182773;28;20263;-51
2022/05/24 03:25:25;;;;;;;6.00;5.07;;;17.10;1.00;;;;;;6183084;28;20343;-53
2022/05/24 03:28:29;;;;;;;4.93;4.73;;;17.10;1.00;;;;;;6181918;28;20356;-56
2022/05/24 03:31:33;;;;;;;4.70;4.30;;;17.10;1.00;;;;;;6170320;28;20743;-51
2022/05/24 03:34:37;;;;;;;4.80;4.57;;;17.00;1.00;;;;;;6182216;28;20236;-52
2022/05/24 03:37:40;;;;;;;5.40;4.57;;;17.00;1.00;;;;;;6178447;28;20433;-53
2022/05/24 03:40:43;;;;;;;5.07;4.80;;;17.00;1.00;;;;;;6176522;28;20785;-51
2022/05/24 03:43:45;;;;;;;5.07;4.87;;;17.00;1.00;;;;;;6192260;28;20244;-52
2022/05/24 03:46:49;;;;;;;4.70;4.50;;;16.90;1.00;;;;;;6178212;28;20239;-53
2022/05/24 03:49:52;;;;;;;5.40;5.10;;;16.90;1.00;;;;;;6177561;28;20306;-53
2022/05/24 03:52:55;;;;;;;4.77;4.57;;;16.90;1.00;;;;;;6180806;28;20506;-52
2022/05/24 03:55:58;;;;;;;5.00;4.70;;;16.90;1.00;;;;;;6184333;28;20266;-52
2022/05/24 03:59:01;;;;;;;5.20;4.90;;;16.90;1.00;;;;;;6179053;28;20294;-51
2022/05/24 04:02:05;;;;;;;4.83;4.53;;;16.90;1.00;;;;;;6183168;28;20235;-53
2022/05/24 04:05:09;;;;;;;5.77;5.47;;;16.90;1.00;;;;;;6189126;28;20224;-52
2022/05/24 04:08:12;;;;;;;4.70;4.50;;;16.90;1.00;;;;;;6184107;28;20721;-52
2022/05/24 04:11:15;;;;;;;4.93;4.73;;;17.00;1.00;;;;;;6180165;28;20243;-52
2022/05/24 04:14:17;;;;;;;6.37;5.87;;;17.00;1.00;;;;;;6181501;28;20231;-52
2022/05/24 04:17:21;;;;;;;8.30;6.30;;;17.00;1.00;;;;;;6179985;28;20808;-54
2022/05/24 04:20:26;;;;;;;6.77;6.30;;;16.90;1.00;;;;;;6176751;28;20773;-53
2022/05/24 04:23:28;;;;;;;7.07;6.47;;;16.80;18.00;;;;;;6181255;28;20354;-52
2022/05/24 04:26:31;;;;;;;7.27;6.67;;;16.70;99.90;;;;;;6195262;28;20235;-53
2022/05/24 04:29:34;;;;;;;12.00;6.73;;;16.70;99.90;;;;;;6187080;28;20239;-53
2022/05/24 04:32:38;;;;;;;7.03;6.53;;;16.70;99.90;;;;;;6190640;28;20790;-53
2022/05/24 04:35:41;;;;;;;7.53;6.97;;;16.60;99.90;;;;;;6176443;28;20704;-50
2022/05/24 04:38:43;;;;;;;7.87;6.97;;;16.50;99.90;;;;;;6187001;28;20258;-52
2022/05/24 04:45:10;;;;;;;7.80;7.20;;;16.50;99.90;;;;;;6194554;28;22497;-52
2022/05/24 04:48:14;;;;;;;7.33;6.77;;;16.50;99.90;;;;;;6178715;28;20251;-53
2022/05/24 04:51:18;;;;;;;7.60;7.20;;;16.50;99.90;;;;;;6183029;28;20244;-55
2022/05/24 04:54:20;;;;;;;8.13;7.40;;;16.40;99.90;;;;;;6192382;28;20404;-53
2022/05/24 04:57:23;;;;;;;8.40;7.70;;;16.50;99.90;;;;;;6200764;28;20251;-52
2022/05/24 05:00:26;;;;;;;8.60;8.00;;;16.50;99.90;;;;;;6189479;28;20306;-54
2022/05/24 05:03:30;;;;;;;8.87;8.00;;;16.50;99.90;;;;;;6194448;28;20296;-55
2022/05/24 05:06:33;;;;;;;9.70;9.00;;;16.50;99.90;;;;;;6181389;28;20247;-53
2022/05/24 05:09:38;;;;;;;8.73;8.20;;;16.40;99.90;;;;;;6183566;28;20577;-53
2022/05/24 05:12:40;;;;;;;9.97;8.23;;;16.40;99.90;;;;;;6193177;28;20298;-52
2022/05/24 05:15:43;;;;;;;9.67;9.00;;;16.40;99.90;;;;;;6184202;28;20683;-52
2022/05/24 05:18:47;;;;;;;9.23;8.50;;;16.40;99.90;;;;;;6185625;28;20243;-54
2022/05/24 05:21:50;;;;;;;9.50;8.63;;;16.40;99.90;;;;;;6188844;28;20302;-52
2022/05/24 05:24:53;;;;;;;10.00;9.20;;;16.50;99.90;;;;;;6181695;28;20597;-53
2022/05/24 05:27:55;;;;;;;9.20;8.57;;;16.50;99.90;;;;;;6187050;28;20244;-53
2022/05/24 05:34:19;;;;;;;9.37;8.70;;;16.60;99.90;;;;;;6180910;28;20246;-54
2022/05/24 05:37:22;;;;;;;8.80;8.30;;;16.50;99.90;;;;;;6195946;28;20321;-53
2022/05/24 05:40:25;;;;;;;9.17;8.47;;;16.50;99.90;;;;;;6194462;28;20270;-54
2022/05/24 05:43:28;;;;;;;9.73;9.03;;;16.50;99.90;;;;;;6190983;28;20320;-52
2022/05/24 05:46:36;;;;;;;10.10;9.30;;;16.60;99.90;;;;;;6190337;28;20252;-52
2022/05/24 05:49:41;;;;;;;10.20;9.47;;;16.60;99.90;;;;;;6197087;28;20377;-53
2022/05/24 05:52:44;;;;;;;9.77;9.17;;;16.60;99.90;;;;;;6193990;28;20887;-54
2022/05/24 05:55:47;;;;;;;10.40;9.60;;;16.60;99.90;;;;;;6193591;28;20319;-54
2022/05/24 05:58:50;;;;;;;9.87;9.23;;;16.70;99.90;;;;;;6191587;28;20378;-52
2022/05/24 06:01:56;;;;;;;9.37;8.77;;;16.70;99.90;;;;;;6193146;28;20583;-52
2022/05/24 06:05:00;;;;;;;10.33;9.73;;;16.70;99.90;;;;;;6190614;28;20633;-61
2022/05/24 06:08:03;;;;;;;10.43;9.73;;;16.60;99.90;;;;;;6188477;28;20254;-53
2022/05/24 06:11:05;;;;;;;10.37;9.57;;;16.60;99.90;;;;;;6190284;28;20459;-52
2022/05/24 06:14:09;;;;;;;11.57;10.37;;;16.80;99.90;;;;;;6188923;28;20326;-52
2022/05/24 06:17:12;;;;;;;10.90;10.20;;;16.80;99.90;;;;;;6184762;28;22033;-52
2022/05/24 06:20:18;;;;;;;9.93;8.90;;;16.90;99.90;;;;;;6184408;28;20291;-53
2022/05/24 06:23:20;;;;;;;9.30;8.63;;;17.10;99.90;;;;;;6186549;28;20513;-52
2022/05/24 06:26:23;;;;;;;9.60;8.97;;;17.30;99.90;;;;;;6196427;28;20243;-53
2022/05/24 06:29:26;;;;;;;9.20;8.70;;;17.20;99.90;;;;;;6196450;28;20331;-53
2022/05/24 06:32:30;;;;;;;8.80;8.00;;;17.30;99.90;;;;;;6188391;28;20235;-52
2022/05/24 06:35:34;;;;;;;12.17;8.50;;;17.30;99.90;;;;;;6193440;28;20326;-53
2022/05/24 06:38:37;;;;;;;8.17;7.57;;;17.40;99.90;;;;;;6188835;28;20780;-49
2022/05/24 06:41:40;;;;;;;8.10;7.40;;;17.50;99.90;;;;;;6180330;28;20248;-50
2022/05/24 06:44:43;;;;;;;7.23;6.83;;;17.50;99.90;;;;;;6192560;28;20702;-50
2022/05/24 06:47:46;;;;;;;6.67;6.27;;;17.50;99.90;;;;;;6194149;28;20258;-52
2022/05/24 06:50:50;;;;;;;8.33;7.60;;;17.50;99.90;;;;;;6167680;28;20225;-51
2022/05/24 06:53:53;;;;;;;8.47;7.77;;;17.60;99.90;;;;;;6186201;28;20777;-52
2022/05/24 06:56:56;;;;;;;7.80;7.13;;;17.30;99.90;;;;;;6177337;28;20240;-51
2022/05/24 07:03:19;;;;;;;5.97;5.57;;;17.50;99.90;;;;;;6185249;28;20240;-53
2022/05/24 07:06:23;;;;;;;6.13;5.70;;;17.80;99.90;;;;;;6182512;28;20251;-53
2022/05/24 07:09:31;;;;;;;5.23;4.93;;;17.80;99.90;;;;;;6182701;28;20231;-52
2022/05/24 07:12:34;;;;;;;4.97;4.67;;;17.90;99.90;;;;;;6195718;28;20228;-51
2022/05/24 07:15:37;;;;;;;5.13;4.73;;;17.90;99.90;;;;;;6189353;28;20322;-51
2022/05/24 07:18:40;;;;;;;5.27;4.90;;;18.10;99.90;;;;;;6189433;28;20381;-51
2022/05/24 07:21:44;;;;;;;5.50;5.13;;;18.40;99.90;;;;;;6190520;28;20701;-52
2022/05/24 07:24:49;;;;;;;5.57;5.17;;;18.80;87.80;;;;;;6193502;28;20243;-52
2022/05/24 07:27:52;;;;;;;5.67;5.37;;;19.10;81.10;;;;;;6184927;28;20255;-51
2022/05/24 07:30:55;;;;;;;5.60;5.20;;;19.10;89.90;;;;;;6192701;28;20247;-51
2022/05/24 07:33:59;;;;;;;5.33;4.80;;;19.10;74.40;;;;;;6193099;28;20739;-52
2022/05/24 07:37:04;;;;;;;5.10;4.80;;;19.20;69.60;;;;;;6188958;28;20333;-52
2022/05/24 07:46:59;;;;;;;4.83;4.63;;;19.00;37.80;;;;;;6186192;28;20231;-53
2022/05/24 07:50:03;;;;;;;4.70;4.60;;;18.80;57.60;;;;;;6188843;28;20622;-52
2022/05/24 07:53:08;;;;;;;4.77;4.57;;;18.80;66.30;;;;;;6191779;28;20831;-50
2022/05/24 07:56:11;;;;;;;5.70;5.33;;;18.80;69.40;;;;;;6192353;28;20260;-53
2022/05/24 07:59:13;;;;;;;5.33;4.90;;;18.70;63.50;;;;;;6189096;28;20266;-51
2022/05/24 08:02:18;;;;;;;4.60;4.40;;;18.70;66.80;;;;;;6196122;28;20625;-52
2022/05/24 08:05:22;;;;;;;4.50;4.20;;;18.50;66.90;;;;;;6186908;28;20503;-52
2022/05/24 08:08:26;;;;;;;5.30;5.00;;;18.70;64.40;;;;;;6194595;28;20236;-52
2022/05/24 08:11:29;;;;;;;4.60;4.40;;;18.80;48.40;;;;;;6189674;28;20729;-52
2022/05/24 08:14:31;;;;;;;4.23;3.97;;;19.10;31.70;;;;;;6190739;28;20306;-53
2022/05/24 08:17:35;;;;;;;4.43;4.10;;;19.40;20.00;;;;;;6191919;28;20296;-52
2022/05/24 08:20:39;;;;;;;4.90;4.50;;;19.50;8.70;;;;;;6188429;28;20788;-53
2022/05/24 08:23:43;;;;;;;4.03;3.87;;;19.50;3.30;;;;;;6187309;28;20825;-52
2022/05/24 08:26:46;;;;;;;5.07;4.80;;;19.30;1.00;;;;;;6183823;28;20270;-52
2022/05/24 08:29:48;;;;;;;5.03;4.70;;;19.00;17.60;;;;;;6190767;28;20250;-52
2022/05/24 08:32:51;;;;;;;4.47;4.13;;;18.70;19.40;;;;;;6195203;28;20231;-52
2022/05/24 08:35:54;;;;;;;4.00;3.90;;;18.50;19.30;;;;;;6187353;28;20235;-52
2022/05/24 08:38:58;;;;;;;4.43;4.23;;;18.40;27.80;;;;;;6180759;28;20318;-54
2022/05/24 08:42:09;;;;;;;4.20;4.00;;;18.20;40.60;;;;;;6183830;28;20649;-52
2022/05/24 08:48:51;;;;;;;4.50;4.30;;;17.90;53.00;;;;;;6180369;28;20363;-51
2022/05/24 08:51:59;;;;;;;4.47;4.27;;;17.80;55.30;;;;;;6176493;28;20894;-52
2022/05/24 08:55:04;;;;;;;4.00;3.80;;;17.80;63.00;;;;;;6196718;28;20283;-52
2022/05/24 08:58:13;;;;;;;3.97;3.63;;;17.80;52.50;;;;;;6188257;28;20386;-52
2022/05/24 09:01:19;;;;;;;3.67;3.57;;;17.90;29.60;;;;;;6189829;28;20875;-49
2022/05/24 09:04:22;;;;;;;3.57;3.37;;;18.00;18.80;;;;;;6191205;28;20544;-51
2022/05/24 09:07:34;;;;;;;4.53;4.10;;;18.10;18.90;;;;;;6186482;28;20733;-52
2022/05/24 09:10:45;;;;;;;3.90;3.70;;;18.40;19.20;;;;;;6195988;28;20282;-51
2022/05/24 09:14:02;;;;;;;3.97;3.87;;;18.70;18.30;;;;;;6185836;28;20240;-53
2022/05/24 09:17:16;;;;;;;3.00;2.93;;;18.90;1.00;;;;;;6185801;28;20236;-51
2022/05/24 09:20:33;;;;;;;3.27;3.20;;;18.90;1.00;;;;;;6180010;28;20878;-51
2022/05/24 09:23:41;;;;;;;2.70;2.60;;;19.10;1.00;;;;;;6197565;28;20256;-53
2022/05/24 09:27:10;;;;;;;3.03;2.83;;;19.40;1.00;;;;;;6202984;28;20326;-51
2022/05/24 09:30:23;;;;;;;2.93;2.80;;;19.70;1.00;;;;;;6185040;28;20294;-52
2022/05/24 09:33:31;;;;;;;2.43;2.43;;;19.90;1.00;;;;;;6202068;28;20690;-53
2022/05/24 09:36:39;;;;;;;2.83;2.73;;;20.10;1.00;;;;;;6195029;28;20236;-52
2022/05/24 09:39:48;;;;;;;2.63;2.53;;;20.10;1.00;;;;;;6158393;28;20318;-51
2022/05/24 09:42:52;;;;;;;2.87;2.63;;;20.10;1.00;;;;;;6196590;28;20248;-51
2022/05/24 09:45:59;;;;;;;2.37;2.37;;;20.20;1.00;;;;;;6192106;28;20232;-54
2022/05/24 09:49:06;;;;;;;2.20;2.20;;;20.30;1.00;;;;;;6184195;28;20299;-53
2022/05/24 09:52:13;;;;;;;1.90;1.90;;;20.40;1.00;;;;;;6196849;28;20282;-51
2022/05/24 09:55:23;;;;;;;2.07;1.97;;;20.60;1.00;;;;;;6207501;28;20239;-52
2022/05/24 09:58:31;;;;;;;1.70;1.70;;;20.80;1.00;;;;;;6188328;28;20244;-52
2022/05/24 10:01:38;;;;;;;2.27;2.17;;;20.90;1.00;;;;;;6189123;28;20358;-50
2022/05/24 10:04:42;;;;;;;2.10;2.00;;;21.00;1.00;;;;;;6186054;28;20236;-55
2022/05/24 10:07:56;;;;;;;2.87;2.00;;;21.00;1.00;;;;;;6192114;28;20286;-52
2022/05/24 10:10:59;;;;;;;2.10;2.00;;;21.00;1.00;;;;;;6189557;28;20407;-52
2022/05/24 10:14:23;;;;;;;1.97;1.97;;;20.90;1.00;;;;;;6198858;28;20235;-52
2022/05/24 10:17:37;;;;;;;2.00;1.90;;;20.80;1.00;;;;;;6186130;28;20239;-53
2022/05/24 10:20:47;;;;;;;2.00;1.90;;;20.80;1.00;;;;;;6162727;28;20363;-53
2022/05/24 10:23:55;;;;;;;2.10;2.00;;;21.00;1.00;;;;;;6183978;28;20468;-52
2022/05/24 10:27:04;;;;;;;1.97;1.97;;;21.10;1.00;;;;;;6187727;28;20236;-53
2022/05/24 10:30:11;;;;;;;2.10;2.00;;;21.40;1.00;;;;;;6172017;28;20423;-52
2022/05/24 10:40:23;;;;;;;2.30;2.30;;;21.80;1.00;;;;;;6181304;28;20285;-53
2022/05/24 10:43:57;;;;;;;2.57;2.50;;;21.90;1.00;;;;;;6164887;28;20756;-51
2022/05/24 10:47:06;;;;;;;2.17;2.07;;;21.90;1.00;;;;;;6170166;28;20233;-52
2022/05/24 10:50:14;;;;;;;3.13;2.93;;;21.90;1.00;;;;;;6180398;28;20258;-53
2022/05/24 10:53:25;;;;;;;2.00;1.90;;;22.10;1.00;;;;;;6194577;28;20784;-52
2022/05/24 10:56:41;;;;;;;2.20;2.10;;;22.20;1.00;;;;;;6187820;28;20244;-54
2022/05/24 10:59:53;;;;;;;2.00;2.00;;;22.20;1.00;;;;;;6183039;28;20311;-53
2022/05/24 11:03:14;;;;;;;2.10;2.00;;;22.20;1.00;;;;;;6185257;28;20250;-52
2022/05/24 11:06:25;;;;;;;2.40;2.30;;;22.30;1.00;;;;;;6183339;28;20232;-50
2022/05/24 11:09:31;;;;;;;2.10;2.10;;;22.30;1.00;;;;;;6184348;28;20232;-53
2022/05/24 11:12:39;;;;;;;2.10;2.10;;;22.40;1.00;;;;;;6186738;28;20228;-53
2022/05/24 11:15:45;;;;;;;2.00;1.90;;;22.60;1.00;;;;;;6182226;28;20323;-52
2022/05/24 11:18:50;;;;;;;1.80;1.80;;;22.80;1.00;;;;;;6183462;28;20250;-52
2022/05/24 11:21:59;;;;;;;2.00;2.00;;;22.80;1.00;;;;;;6182750;28;20311;-53
2022/05/24 11:25:11;;;;;;;2.00;2.00;;;23.10;1.00;;;;;;6181071;28;20672;-53
2022/05/24 11:28:25;;;;;;;2.10;2.00;;;23.00;1.00;;;;;;6183742;28;20784;-52
2022/05/24 11:31:35;;;;;;;1.90;1.90;;;22.90;1.00;;;;;;6182974;28;20759;-52
2022/05/24 11:34:48;;;;;;;2.00;2.00;;;22.80;1.00;;;;;;6181760;28;20769;-52
2022/05/24 11:38:12;;;;;;;2.27;2.17;;;22.90;1.00;;;;;;6183393;28;20817;-53
2022/05/24 11:41:27;;;;;;;1.97;1.97;;;22.90;1.00;;;;;;6182269;28;20519;-56
2022/05/24 11:44:33;;;;;;;2.53;1.93;;;23.10;1.00;;;;;;6189266;28;20265;-52
2022/05/24 11:48:02;;;;;;;1.90;1.90;;;23.00;1.00;;;;;;6184337;28;20257;-53
2022/05/24 11:51:37;;;;;;;1.90;1.80;;;22.90;1.00;;;;;;6179412;28;20719;-53
2022/05/24 11:54:56;;;;;;;2.13;1.93;;;22.70;1.00;;;;;;6185245;28;20371;-52
2022/05/24 11:58:06;;;;;;;2.40;2.30;;;22.70;1.00;;;;;;6179019;28;20530;-51
2022/05/24 12:01:30;;;;;;;2.23;2.20;;;22.60;1.00;;;;;;6184052;28;20729;-53
2022/05/24 12:08:30;;;;;;;2.10;2.10;;;22.40;1.00;;;;;;6153948;28;20239;-51
2022/05/24 12:11:36;;;;;;;2.10;2.00;;;22.40;1.00;;;;;;6186344;28;20232;-51
2022/05/24 12:14:40;;;;;;;2.20;2.20;;;22.60;1.00;;;;;;6182779;28;20250;-52
2022/05/24 12:17:44;;;;;;;2.20;2.20;;;22.80;1.00;;;;;;6184498;28;20581;-53
2022/05/24 12:20:58;;;;;;;2.10;2.07;;;22.80;1.00;;;;;;6182496;28;20236;-53
2022/05/24 12:24:40;;;;;;;2.13;2.10;;;22.90;1.00;;;;;;6186328;28;20620;-52
2022/05/24 12:27:54;;;;;;;2.40;2.30;;;22.90;1.00;;;;;;6161870;28;20275;-53
2022/05/24 12:30:58;;;;;;;2.40;2.30;;;22.70;1.00;;;;;;6183392;28;20715;-52
2022/05/24 12:34:06;;;;;;;2.30;2.30;;;22.70;1.00;;;;;;6187311;28;20242;-52
2022/05/24 12:37:19;;;;;;;2.70;2.60;;;22.60;1.00;;;;;;6180174;28;20310;-52
2022/05/24 12:40:25;;;;;;;2.43;2.43;;;22.40;1.00;;;;;;6182106;28;20654;-52
2022/05/24 12:43:29;;;;;;;2.30;2.30;;;22.10;1.00;;;;;;6185116;28;20234;-52
2022/05/24 12:46:34;;;;;;;2.47;2.37;;;21.80;1.00;;;;;;6182070;28;20235;-52
2022/05/24 12:49:51;;;;;;;2.67;2.57;;;21.60;1.00;;;;;;6188375;28;20239;-53
2022/05/24 12:53:00;;;;;;;2.37;2.37;;;21.50;1.00;;;;;;6181695;28;20264;-52
2022/05/24 12:56:08;;;;;;;2.57;2.47;;;21.50;1.00;;;;;;6181907;28;20310;-53
2022/05/24 12:59:15;;;;;;;2.63;2.50;;;21.90;1.00;;;;;;6180302;28;20737;-52
2022/05/24 13:02:28;;;;;;;3.80;3.70;;;22.30;1.00;;;;;;6178979;28;20709;-52
2022/05/24 13:05:38;;;;;;;2.60;2.53;;;22.90;1.00;;;;;;6183850;28;20398;-52
2022/05/24 13:08:40;;;;;;;2.40;2.40;;;23.20;1.00;;;;;;6178850;28;20243;-52
2022/05/24 13:11:46;;;;;;;2.77;2.77;;;23.50;1.00;;;;;;6186779;28;20244;-53
2022/05/24 13:14:56;;;;;;;3.40;3.30;;;23.60;1.00;;;;;;6186106;28;20370;-52
2022/05/24 13:18:04;;;;;;;2.83;2.73;;;23.50;1.00;;;;;;6181997;28;20331;-51
2022/05/24 13:21:09;;;;;;;3.10;2.93;;;23.50;1.00;;;;;;6183331;28;20243;-52
2022/05/24 13:24:15;;;;;;;2.63;2.63;;;23.30;1.00;;;;;;6184398;28;20548;-53
2022/05/24 13:27:18;;;;;;;2.80;2.63;;;23.10;1.00;;;;;;6186541;28;20319;-51
2022/05/24 13:34:14;;;;;;;4.10;2.20;;;22.80;1.00;;;;;;6181661;28;20232;-51
2022/05/24 13:37:17;;;;;;;2.67;2.67;;;22.60;1.00;;;;;;6185291;28;20563;-53
2022/05/24 13:40:20;;;;;;;2.80;2.70;;;22.50;1.00;;;;;;6175993;28;20284;-52
2022/05/24 13:43:34;;;;;;;2.93;2.67;;;22.50;1.00;;;;;;6189080;28;20259;-52
2022/05/24 13:47:08;;;;;;;2.70;2.70;;;22.40;1.00;;;;;;6178132;28;20291;-51
2022/05/24 13:50:25;;;;;;;2.47;2.40;;;22.20;1.00;;;;;;6140236;28;20236;-53
2022/05/24 13:53:31;;;;;;;2.80;2.80;;;22.00;1.00;;;;;;6187586;28;20331;-52
2022/05/24 13:56:37;;;;;;;3.10;2.70;;;21.80;1.00;;;;;;6195897;28;20832;-52
2022/05/24 13:59:40;;;;;;;2.87;2.77;;;21.90;1.00;;;;;;6191388;28;20747;-53
2022/05/24 14:02:44;;;;;;;3.80;3.70;;;22.00;1.00;;;;;;6193468;28;20491;-53
2022/05/24 14:05:50;;;;;;;3.03;2.90;;;22.00;1.00;;;;;;6190689;28;20727;-56
2022/05/24 14:08:54;;;;;;;3.07;2.83;;;22.00;1.00;;;;;;6186690;28;20232;-51
2022/05/24 14:11:59;;;;;;;3.57;3.40;;;21.90;1.00;;;;;;6190162;28;20389;-50
2022/05/24 14:15:06;;;;;;;4.03;3.93;;;21.70;1.00;;;;;;6189834;28;20239;-51
2022/05/24 14:18:11;;;;;;;3.83;3.60;;;21.50;1.00;;;;;;6194443;28;20418;-52
2022/05/24 14:21:17;;;;;;;5.10;3.53;;;21.10;1.00;;;;;;6191624;28;20228;-53
2022/05/24 14:24:23;;;;;;;3.70;3.50;;;20.60;1.00;;;;;;6190058;28;20254;-52
2022/05/24 14:27:26;;;;;;;3.63;3.43;;;20.20;1.00;;;;;;6187315;28;20264;-52
2022/05/24 14:30:30;;;;;;;3.37;3.27;;;19.90;1.00;;;;;;6185237;28;20239;-53
2022/05/24 14:33:34;;;;;;;3.97;3.47;;;19.70;1.00;;;;;;6195173;28;20540;-54
2022/05/24 14:36:37;;;;;;;4.93;3.57;;;19.50;1.00;;;;;;6177669;28;20248;-52
2022/05/24 14:39:46;;;;;;;3.03;2.97;;;19.30;1.00;;;;;;6185043;28;20244;-51
2022/05/24 14:42:50;;;;;;;3.10;3.10;;;19.10;1.00;;;;;;6188980;28;20250;-54
2022/05/24 14:45:53;;;;;;;2.83;2.83;;;19.00;1.00;;;;;;6188932;28;20326;-51
2022/05/24 14:48:58;;;;;;;2.77;2.77;;;18.90;1.00;;;;;;6185612;28;20240;-54
2022/05/24 14:52:04;;;;;;;3.30;3.20;;;18.70;1.00;;;;;;6181390;28;20753;-53
2022/05/24 14:55:10;;;;;;;2.63;2.63;;;18.70;1.00;;;;;;6196116;28;20747;-53
2022/05/24 14:58:13;;;;;;;4.10;2.73;;;18.80;1.00;;;;;;6195402;28;20250;-53
2022/05/24 15:01:16;;;;;;;3.70;2.40;;;18.90;1.00;;;;;;6181062;28;20240;-52
2022/05/24 15:04:20;;;;;;;2.30;2.30;;;19.00;1.00;;;;;;6197369;28;20255;-52
2022/05/24 15:17:34;;;;;;;2.63;2.63;;;19.00;1.00;;;;;;6185965;28;20499;-53
2022/05/24 15:20:40;;;;;;;4.93;4.73;;;19.00;1.00;;;;;;6182290;28;20887;-53
2022/05/24 15:23:46;;;;;;;2.43;2.43;;;19.00;1.00;;;;;;6194563;28;20323;-53
2022/05/24 15:26:53;;;;;;;2.00;2.00;;;19.10;1.00;;;;;;6198563;28;20287;-51
2022/05/24 15:29:56;;;;;;;2.10;2.10;;;19.10;1.00;;;;;;6185108;28;20824;-53
2022/05/24 15:32:59;;;;;;;1.80;1.80;;;19.00;1.00;;;;;;6184235;28;20420;-52
2022/05/24 15:36:04;;;;;;;2.50;2.30;;;19.00;1.00;;;;;;6186197;28;20339;-55
2022/05/24 15:39:07;;;;;;;1.90;1.80;;;18.90;1.00;;;;;;6183332;28;20287;-52
2022/05/24 15:42:10;;;;;;;1.80;1.80;;;18.90;1.00;;;;;;6188123;28;20268;-53
2022/05/24 15:45:14;;;;;;;1.80;1.80;;;19.00;1.00;;;;;;6191644;28;20289;-54
2022/05/24 15:48:17;;;;;;;2.00;1.90;;;19.10;1.00;;;;;;6185118;28;20274;-53
2022/05/24 15:51:22;;;;;;;2.07;1.90;;;19.30;1.00;;;;;;6176940;28;20236;-53
2022/05/24 15:54:25;;;;;;;2.00;2.00;;;19.40;1.00;;;;;;6182251;28;20235;-53
2022/05/24 15:57:28;;;;;;;2.17;2.17;;;19.50;1.00;;;;;;6186209;28;20664;-53
2022/05/24 16:00:31;;;;;;;2.20;2.10;;;19.60;1.00;;;;;;6182220;28;20622;-52
2022/05/24 16:03:34;;;;;;;2.20;2.20;;;19.90;1.00;;;;;;6184415;28;20236;-53
2022/05/24 16:10:06;;;;;;;2.47;2.30;;;20.50;1.00;;;;;;6180720;28;20617;-53
2022/05/24 16:13:13;;;;;;;2.17;2.17;;;20.70;1.00;;;;;;6180792;28;20351;-52
2022/05/24 16:16:16;;;;;;;2.37;2.37;;;20.80;1.00;;;;;;6182504;28;20236;-52
2022/05/24 16:19:19;;;;;;;2.67;2.67;;;20.80;1.00;;;;;;6181616;28;20247;-54
2022/05/24 16:22:23;;;;;;;2.30;2.30;;;20.70;1.00;;;;;;6182096;28;20330;-51
2022/05/24 16:25:27;;;;;;;2.40;2.40;;;20.40;1.00;;;;;;6187309;28;20289;-51
2022/05/24 16:28:30;;;;;;;2.20;2.20;;;20.30;1.00;;;;;;6187149;28;20374;-57
2022/05/24 16:31:33;;;;;;;2.40;2.30;;;20.30;1.00;;;;;;6165650;28;20498;-52
2022/05/24 16:34:35;;;;;;;2.20;2.20;;;20.10;1.00;;;;;;6173154;28;20240;-52
2022/05/24 16:37:40;;;;;;;2.50;2.50;;;20.10;1.00;;;;;;6165504;28;20240;-52
2022/05/24 16:40:42;;;;;;;2.47;2.37;;;19.90;1.00;;;;;;6171488;28;20519;-53
2022/05/24 16:43:45;;;;;;;2.40;2.40;;;19.90;1.00;;;;;;6184126;28;20608;-51
2022/05/24 16:46:48;;;;;;;2.43;2.43;;;19.90;1.00;;;;;;6176948;28;20620;-52
2022/05/24 16:49:51;;;;;;;2.37;2.30;;;20.00;1.00;;;;;;6182467;28;20240;-52
2022/05/24 16:52:55;;;;;;;2.33;2.20;;;20.00;1.00;;;;;;6171710;28;20245;-52
2022/05/24 16:59:18;;;;;;;2.70;2.60;;;19.80;1.00;;;;;;6176715;28;20655;-54
2022/05/24 17:02:20;;;;;;;2.90;2.70;;;19.80;1.00;;;;;;6168132;28;20254;-51
2022/05/24 17:05:24;;;;;;;2.80;2.70;;;19.80;1.00;;;;;;6171967;28;20323;-51
2022/05/24 17:08:28;;;;;;;2.30;2.30;;;19.80;1.00;;;;;;6173836;28;20319;-51
2022/05/24 17:11:31;;;;;;;2.63;2.47;;;19.80;1.00;;;;;;6181840;28;20232;-52
2022/05/24 17:14:34;;;;;;;2.23;2.23;;;19.70;1.00;;;;;;6171128;28;20309;-52